sensor_id;sensor_type;location;lat;lon;timestamp;P1;durP1;ratioP1;P2;durP2;ratioP2
5805;SDS011;2929;50.810;8.342;2022-08-19T00:01:18;26.07;;;19.03;;
5805;SDS011;2929;50.810;8.342;2022-08-19T00:03:45;26.40;;;17.43;;
5805;SDS011;2929;50.810;8.342;2022-08-19T00:06:13;27.80;;;19.13;;
5805;SDS011;2929;50.810;8.342;2022-08-19T00:08:41;29.90;;;19.37;;
5805;SDS011;2929;50.810;8.342;2022-08-19T00:11:08;29.23;;;19.87;;
5805;SDS011;2929;50.810;8.342;2022-08-19T00:13:36;25.50;;;17.60;;
5805;SDS011;2929;50.810;8.342;2022-08-19T00:16:04;24.50;;;17.20;;
5805;SDS011;2929;50.810;8.342;2022-08-19T00:18:31;24.17;;;17.17;;
5805;SDS011;2929;50.810;8.342;2022-08-19T00:20:58;24.47;;;17.70;;
5805;SDS011;2929;50.810;8.342;2022-08-19T00:23:27;28.17;;;19.70;;
5805;SDS011;2929;50.810;8.342;2022-08-19T00:25:55;31.23;;;20.27;;
5805;SDS011;2929;50.810;8.342;2022-08-19T00:28:22;28.50;;;19.43;;
5805;SDS011;2929;50.810;8.342;2022-08-19T00:30:49;29.20;;;19.43;;
5805;SDS011;2929;50.810;8.342;2022-08-19T00:33:18;25.50;;;17.17;;
5805;SDS011;2929;50.810;8.342;2022-08-19T00:35:45;27.30;;;19.20;;
5805;SDS011;2929;50.810;8.342;2022-08-19T00:38:13;26.10;;;19.27;;
5805;SDS011;2929;50.810;8.342;2022-08-19T00:40:43;25.00;;;18.20;;
5805;SDS011;2929;50.810;8.342;2022-08-19T00:43:12;25.10;;;18.37;;
5805;SDS011;2929;50.810;8.342;2022-08-19T00:45:39;26.43;;;17.47;;
5805;SDS011;2929;50.810;8.342;2022-08-19T00:48:09;21.70;;;16.67;;
5805;SDS011;2929;50.810;8.342;2022-08-19T00:50:36;26.13;;;18.40;;
5805;SDS011;2929;50.810;8.342;2022-08-19T00:53:08;29.50;;;17.97;;
5805;SDS011;2929;50.810;8.342;2022-08-19T00:55:36;26.47;;;18.80;;
5805;SDS011;2929;50.810;8.342;2022-08-19T00:58:07;25.90;;;18.13;;
5805;SDS011;2929;50.810;8.342;2022-08-19T01:00:38;24.40;;;17.30;;
5805;SDS011;2929;50.810;8.342;2022-08-19T01:03:06;25.33;;;17.63;;
5805;SDS011;2929;50.810;8.342;2022-08-19T01:05:36;27.03;;;18.07;;
5805;SDS011;2929;50.810;8.342;2022-08-19T01:08:06;26.67;;;18.50;;
5805;SDS011;2929;50.810;8.342;2022-08-19T01:10:35;28.80;;;19.63;;
5805;SDS011;2929;50.810;8.342;2022-08-19T01:13:06;26.67;;;18.90;;
5805;SDS011;2929;50.810;8.342;2022-08-19T01:15:35;25.60;;;18.77;;
5805;SDS011;2929;50.810;8.342;2022-08-19T01:18:09;24.67;;;17.50;;
5805;SDS011;2929;50.810;8.342;2022-08-19T01:20:38;27.40;;;17.93;;
5805;SDS011;2929;50.810;8.342;2022-08-19T01:23:08;24.80;;;17.93;;
5805;SDS011;2929;50.810;8.342;2022-08-19T01:25:36;25.53;;;18.53;;
5805;SDS011;2929;50.810;8.342;2022-08-19T01:28:13;25.53;;;17.67;;
5805;SDS011;2929;50.810;8.342;2022-08-19T01:30:43;27.00;;;18.43;;
5805;SDS011;2929;50.810;8.342;2022-08-19T01:33:10;29.10;;;18.20;;
5805;SDS011;2929;50.810;8.342;2022-08-19T01:35:37;23.63;;;18.77;;
5805;SDS011;2929;50.810;8.342;2022-08-19T01:38:07;25.27;;;17.70;;
5805;SDS011;2929;50.810;8.342;2022-08-19T01:40:37;26.80;;;19.63;;
5805;SDS011;2929;50.810;8.342;2022-08-19T01:43:07;29.17;;;20.00;;
5805;SDS011;2929;50.810;8.342;2022-08-19T01:45:34;27.17;;;18.63;;
5805;SDS011;2929;50.810;8.342;2022-08-19T01:48:05;28.03;;;19.23;;
5805;SDS011;2929;50.810;8.342;2022-08-19T01:50:33;27.60;;;18.53;;
5805;SDS011;2929;50.810;8.342;2022-08-19T01:53:03;27.40;;;18.53;;
5805;SDS011;2929;50.810;8.342;2022-08-19T01:55:34;28.77;;;19.53;;
5805;SDS011;2929;50.810;8.342;2022-08-19T01:58:03;27.33;;;19.60;;
5805;SDS011;2929;50.810;8.342;2022-08-19T02:00:32;34.17;;;20.90;;
5805;SDS011;2929;50.810;8.342;2022-08-19T02:02:59;26.67;;;19.27;;
5805;SDS011;2929;50.810;8.342;2022-08-19T02:05:27;22.83;;;17.20;;
5805;SDS011;2929;50.810;8.342;2022-08-19T02:07:54;23.60;;;17.03;;
5805;SDS011;2929;50.810;8.342;2022-08-19T02:10:22;24.07;;;17.07;;
5805;SDS011;2929;50.810;8.342;2022-08-19T02:12:50;23.33;;;17.67;;
5805;SDS011;2929;50.810;8.342;2022-08-19T02:15:18;21.80;;;17.40;;
5805;SDS011;2929;50.810;8.342;2022-08-19T02:17:46;21.93;;;16.80;;
5805;SDS011;2929;50.810;8.342;2022-08-19T02:20:14;25.70;;;17.47;;
5805;SDS011;2929;50.810;8.342;2022-08-19T02:22:41;24.37;;;17.33;;
5805;SDS011;2929;50.810;8.342;2022-08-19T02:25:09;29.13;;;18.90;;
5805;SDS011;2929;50.810;8.342;2022-08-19T02:27:37;26.60;;;18.20;;
5805;SDS011;2929;50.810;8.342;2022-08-19T02:30:07;22.57;;;16.50;;
5805;SDS011;2929;50.810;8.342;2022-08-19T02:32:38;19.77;;;14.50;;
5805;SDS011;2929;50.810;8.342;2022-08-19T02:35:05;22.67;;;15.87;;
5805;SDS011;2929;50.810;8.342;2022-08-19T02:37:33;21.87;;;17.10;;
5805;SDS011;2929;50.810;8.342;2022-08-19T02:40:18;23.90;;;17.53;;
5805;SDS011;2929;50.810;8.342;2022-08-19T02:42:46;25.20;;;16.77;;
5805;SDS011;2929;50.810;8.342;2022-08-19T02:45:14;23.10;;;15.87;;
5805;SDS011;2929;50.810;8.342;2022-08-19T02:47:42;21.27;;;15.93;;
5805;SDS011;2929;50.810;8.342;2022-08-19T02:50:09;22.87;;;16.17;;
5805;SDS011;2929;50.810;8.342;2022-08-19T02:52:36;33.10;;;17.30;;
5805;SDS011;2929;50.810;8.342;2022-08-19T02:55:03;22.50;;;15.27;;
5805;SDS011;2929;50.810;8.342;2022-08-19T02:57:31;27.87;;;16.03;;
5805;SDS011;2929;50.810;8.342;2022-08-19T02:59:59;27.40;;;15.87;;
5805;SDS011;2929;50.810;8.342;2022-08-19T03:02:28;22.50;;;16.87;;
5805;SDS011;2929;50.810;8.342;2022-08-19T03:04:55;22.63;;;16.07;;
5805;SDS011;2929;50.810;8.342;2022-08-19T03:07:22;25.40;;;16.50;;
5805;SDS011;2929;50.810;8.342;2022-08-19T03:09:49;22.20;;;16.27;;
5805;SDS011;2929;50.810;8.342;2022-08-19T03:12:16;23.47;;;16.77;;
5805;SDS011;2929;50.810;8.342;2022-08-19T03:14:43;23.87;;;16.60;;
5805;SDS011;2929;50.810;8.342;2022-08-19T03:17:11;21.57;;;15.90;;
5805;SDS011;2929;50.810;8.342;2022-08-19T03:19:40;21.63;;;16.20;;
5805;SDS011;2929;50.810;8.342;2022-08-19T03:22:08;25.23;;;17.17;;
5805;SDS011;2929;50.810;8.342;2022-08-19T03:24:35;25.83;;;17.53;;
5805;SDS011;2929;50.810;8.342;2022-08-19T03:27:03;22.53;;;16.60;;
5805;SDS011;2929;50.810;8.342;2022-08-19T03:29:30;27.07;;;16.77;;
5805;SDS011;2929;50.810;8.342;2022-08-19T03:31:58;21.33;;;14.53;;
5805;SDS011;2929;50.810;8.342;2022-08-19T03:34:28;19.57;;;16.00;;
5805;SDS011;2929;50.810;8.342;2022-08-19T03:36:58;20.47;;;14.80;;
5805;SDS011;2929;50.810;8.342;2022-08-19T03:39:30;26.60;;;17.30;;
5805;SDS011;2929;50.810;8.342;2022-08-19T03:41:57;23.70;;;15.70;;
5805;SDS011;2929;50.810;8.342;2022-08-19T03:44:25;28.20;;;17.50;;
5805;SDS011;2929;50.810;8.342;2022-08-19T03:46:52;25.50;;;17.30;;
5805;SDS011;2929;50.810;8.342;2022-08-19T03:49:21;23.80;;;17.30;;
5805;SDS011;2929;50.810;8.342;2022-08-19T03:51:50;24.00;;;17.93;;
5805;SDS011;2929;50.810;8.342;2022-08-19T03:54:19;26.83;;;18.23;;
5805;SDS011;2929;50.810;8.342;2022-08-19T03:56:49;25.80;;;17.03;;
5805;SDS011;2929;50.810;8.342;2022-08-19T03:59:19;18.93;;;15.30;;
5805;SDS011;2929;50.810;8.342;2022-08-19T04:01:51;20.10;;;14.80;;
5805;SDS011;2929;50.810;8.342;2022-08-19T04:04:18;22.97;;;15.60;;
5805;SDS011;2929;50.810;8.342;2022-08-19T04:06:45;21.07;;;14.80;;
5805;SDS011;2929;50.810;8.342;2022-08-19T04:09:13;18.33;;;14.17;;
5805;SDS011;2929;50.810;8.342;2022-08-19T04:11:42;25.53;;;16.67;;
5805;SDS011;2929;50.810;8.342;2022-08-19T04:14:11;25.53;;;16.27;;
5805;SDS011;2929;50.810;8.342;2022-08-19T04:16:39;21.53;;;14.37;;
5805;SDS011;2929;50.810;8.342;2022-08-19T04:19:06;22.67;;;15.10;;
5805;SDS011;2929;50.810;8.342;2022-08-19T04:21:33;22.03;;;15.50;;
5805;SDS011;2929;50.810;8.342;2022-08-19T04:24:00;20.77;;;15.50;;
5805;SDS011;2929;50.810;8.342;2022-08-19T04:26:29;23.30;;;15.93;;
5805;SDS011;2929;50.810;8.342;2022-08-19T04:28:59;21.93;;;15.27;;
5805;SDS011;2929;50.810;8.342;2022-08-19T04:31:28;21.17;;;15.60;;
5805;SDS011;2929;50.810;8.342;2022-08-19T04:33:58;25.10;;;16.20;;
5805;SDS011;2929;50.810;8.342;2022-08-19T04:36:27;19.43;;;14.47;;
5805;SDS011;2929;50.810;8.342;2022-08-19T04:38:57;21.67;;;15.00;;
5805;SDS011;2929;50.810;8.342;2022-08-19T04:41:26;20.73;;;14.57;;
5805;SDS011;2929;50.810;8.342;2022-08-19T04:44:20;17.40;;;14.53;;
5805;SDS011;2929;50.810;8.342;2022-08-19T04:46:48;17.50;;;13.60;;
5805;SDS011;2929;50.810;8.342;2022-08-19T04:49:17;22.33;;;14.00;;
5805;SDS011;2929;50.810;8.342;2022-08-19T04:51:46;22.50;;;15.17;;
5805;SDS011;2929;50.810;8.342;2022-08-19T04:54:15;22.77;;;14.27;;
5805;SDS011;2929;50.810;8.342;2022-08-19T04:56:42;20.07;;;15.20;;
5805;SDS011;2929;50.810;8.342;2022-08-19T04:59:10;23.07;;;15.47;;
5805;SDS011;2929;50.810;8.342;2022-08-19T05:01:38;25.03;;;16.00;;
5805;SDS011;2929;50.810;8.342;2022-08-19T05:04:05;22.17;;;15.80;;
5805;SDS011;2929;50.810;8.342;2022-08-19T05:06:34;21.53;;;15.40;;
5805;SDS011;2929;50.810;8.342;2022-08-19T05:09:02;21.77;;;15.77;;
5805;SDS011;2929;50.810;8.342;2022-08-19T05:11:31;27.80;;;14.70;;
5805;SDS011;2929;50.810;8.342;2022-08-19T05:14:00;21.67;;;15.20;;
5805;SDS011;2929;50.810;8.342;2022-08-19T05:16:27;24.73;;;15.30;;
5805;SDS011;2929;50.810;8.342;2022-08-19T05:18:56;27.93;;;17.10;;
5805;SDS011;2929;50.810;8.342;2022-08-19T05:21:41;31.47;;;18.17;;
5805;SDS011;2929;50.810;8.342;2022-08-19T05:24:26;31.13;;;18.77;;
5805;SDS011;2929;50.810;8.342;2022-08-19T05:26:54;27.90;;;15.77;;
5805;SDS011;2929;50.810;8.342;2022-08-19T05:29:23;25.77;;;14.73;;
5805;SDS011;2929;50.810;8.342;2022-08-19T05:31:52;25.77;;;16.53;;
5805;SDS011;2929;50.810;8.342;2022-08-19T05:34:23;35.03;;;17.50;;
5805;SDS011;2929;50.810;8.342;2022-08-19T05:36:53;27.63;;;16.03;;
5805;SDS011;2929;50.810;8.342;2022-08-19T05:39:22;27.33;;;17.17;;
5805;SDS011;2929;50.810;8.342;2022-08-19T05:41:52;32.83;;;20.23;;
5805;SDS011;2929;50.810;8.342;2022-08-19T05:44:22;33.63;;;20.40;;
5805;SDS011;2929;50.810;8.342;2022-08-19T05:46:50;26.43;;;18.40;;
5805;SDS011;2929;50.810;8.342;2022-08-19T05:49:19;31.00;;;18.90;;
5805;SDS011;2929;50.810;8.342;2022-08-19T05:51:49;27.83;;;19.23;;
5805;SDS011;2929;50.810;8.342;2022-08-19T05:54:16;27.83;;;19.47;;
5805;SDS011;2929;50.810;8.342;2022-08-19T05:56:44;26.73;;;18.87;;
5805;SDS011;2929;50.810;8.342;2022-08-19T05:59:13;25.10;;;16.80;;
5805;SDS011;2929;50.810;8.342;2022-08-19T06:01:45;24.33;;;16.47;;
5805;SDS011;2929;50.810;8.342;2022-08-19T06:04:16;24.93;;;15.80;;
5805;SDS011;2929;50.810;8.342;2022-08-19T06:06:44;27.77;;;16.10;;
5805;SDS011;2929;50.810;8.342;2022-08-19T06:09:13;29.33;;;16.23;;
5805;SDS011;2929;50.810;8.342;2022-08-19T06:11:41;26.03;;;16.17;;
5805;SDS011;2929;50.810;8.342;2022-08-19T06:14:11;23.57;;;15.30;;
5805;SDS011;2929;50.810;8.342;2022-08-19T06:16:40;23.63;;;15.83;;
5805;SDS011;2929;50.810;8.342;2022-08-19T06:19:09;32.10;;;20.53;;
5805;SDS011;2929;50.810;8.342;2022-08-19T06:21:39;23.93;;;17.23;;
5805;SDS011;2929;50.810;8.342;2022-08-19T06:24:09;40.63;;;25.27;;
5805;SDS011;2929;50.810;8.342;2022-08-19T06:26:40;44.43;;;27.90;;
5805;SDS011;2929;50.810;8.342;2022-08-19T06:29:09;39.53;;;23.57;;
5805;SDS011;2929;50.810;8.342;2022-08-19T06:31:40;37.80;;;27.00;;
5805;SDS011;2929;50.810;8.342;2022-08-19T06:34:09;35.37;;;22.77;;
5805;SDS011;2929;50.810;8.342;2022-08-19T06:36:37;36.50;;;23.87;;
5805;SDS011;2929;50.810;8.342;2022-08-19T06:39:07;41.00;;;21.40;;
5805;SDS011;2929;50.810;8.342;2022-08-19T06:41:36;38.37;;;20.57;;
5805;SDS011;2929;50.810;8.342;2022-08-19T06:44:09;32.50;;;20.23;;
5805;SDS011;2929;50.810;8.342;2022-08-19T06:46:37;24.00;;;17.50;;
5805;SDS011;2929;50.810;8.342;2022-08-19T06:49:06;23.70;;;17.00;;
5805;SDS011;2929;50.810;8.342;2022-08-19T06:51:35;30.57;;;17.33;;
5805;SDS011;2929;50.810;8.342;2022-08-19T06:54:02;24.10;;;17.57;;
5805;SDS011;2929;50.810;8.342;2022-08-19T06:56:30;29.47;;;16.50;;
5805;SDS011;2929;50.810;8.342;2022-08-19T06:58:59;27.23;;;17.40;;
5805;SDS011;2929;50.810;8.342;2022-08-19T07:01:27;24.63;;;17.93;;
5805;SDS011;2929;50.810;8.342;2022-08-19T07:03:54;25.87;;;17.20;;
5805;SDS011;2929;50.810;8.342;2022-08-19T07:06:21;27.13;;;17.37;;
5805;SDS011;2929;50.810;8.342;2022-08-19T07:08:48;30.20;;;17.93;;
5805;SDS011;2929;50.810;8.342;2022-08-19T07:11:17;25.23;;;16.73;;
5805;SDS011;2929;50.810;8.342;2022-08-19T07:13:46;22.20;;;15.33;;
5805;SDS011;2929;50.810;8.342;2022-08-19T07:16:14;17.43;;;13.30;;
5805;SDS011;2929;50.810;8.342;2022-08-19T07:18:44;24.37;;;11.87;;
5805;SDS011;2929;50.810;8.342;2022-08-19T07:21:12;18.93;;;10.80;;
5805;SDS011;2929;50.810;8.342;2022-08-19T07:23:41;13.57;;;10.37;;
5805;SDS011;2929;50.810;8.342;2022-08-19T07:26:09;14.83;;;10.73;;
5805;SDS011;2929;50.810;8.342;2022-08-19T07:28:38;23.77;;;15.07;;
5805;SDS011;2929;50.810;8.342;2022-08-19T07:31:06;20.70;;;12.43;;
5805;SDS011;2929;50.810;8.342;2022-08-19T07:33:33;25.30;;;17.17;;
5805;SDS011;2929;50.810;8.342;2022-08-19T07:36:04;23.93;;;15.50;;
5805;SDS011;2929;50.810;8.342;2022-08-19T07:38:32;25.60;;;15.60;;
5805;SDS011;2929;50.810;8.342;2022-08-19T07:41:00;18.23;;;13.63;;
5805;SDS011;2929;50.810;8.342;2022-08-19T07:43:27;18.03;;;10.00;;
5805;SDS011;2929;50.810;8.342;2022-08-19T07:45:54;17.30;;;9.43;;
5805;SDS011;2929;50.810;8.342;2022-08-19T07:48:22;11.00;;;9.53;;
5805;SDS011;2929;50.810;8.342;2022-08-19T07:50:50;11.93;;;9.53;;
5805;SDS011;2929;50.810;8.342;2022-08-19T07:53:20;12.90;;;9.47;;
5805;SDS011;2929;50.810;8.342;2022-08-19T07:55:48;12.70;;;8.40;;
5805;SDS011;2929;50.810;8.342;2022-08-19T07:58:16;21.60;;;9.60;;
5805;SDS011;2929;50.810;8.342;2022-08-19T08:00:47;16.37;;;9.10;;
5805;SDS011;2929;50.810;8.342;2022-08-19T08:03:17;13.33;;;9.20;;
5805;SDS011;2929;50.810;8.342;2022-08-19T08:06:07;17.40;;;8.30;;
5805;SDS011;2929;50.810;8.342;2022-08-19T08:08:53;12.27;;;8.13;;
5805;SDS011;2929;50.810;8.342;2022-08-19T08:11:43;14.07;;;9.70;;
5805;SDS011;2929;50.810;8.342;2022-08-19T08:14:14;15.23;;;10.27;;
5805;SDS011;2929;50.810;8.342;2022-08-19T08:16:43;13.70;;;10.37;;
5805;SDS011;2929;50.810;8.342;2022-08-19T08:19:10;15.20;;;11.00;;
5805;SDS011;2929;50.810;8.342;2022-08-19T08:21:40;17.67;;;11.23;;
5805;SDS011;2929;50.810;8.342;2022-08-19T08:24:09;11.53;;;9.80;;
5805;SDS011;2929;50.810;8.342;2022-08-19T08:26:37;18.10;;;11.33;;
5805;SDS011;2929;50.810;8.342;2022-08-19T08:29:05;15.53;;;10.57;;
5805;SDS011;2929;50.810;8.342;2022-08-19T08:31:36;17.60;;;12.57;;
5805;SDS011;2929;50.810;8.342;2022-08-19T08:34:03;12.33;;;9.97;;
5805;SDS011;2929;50.810;8.342;2022-08-19T08:36:30;19.20;;;12.40;;
5805;SDS011;2929;50.810;8.342;2022-08-19T08:38:58;18.50;;;11.93;;
5805;SDS011;2929;50.810;8.342;2022-08-19T08:41:30;16.13;;;12.77;;
5805;SDS011;2929;50.810;8.342;2022-08-19T08:44:03;16.60;;;12.27;;
5805;SDS011;2929;50.810;8.342;2022-08-19T08:46:33;12.40;;;11.10;;
5805;SDS011;2929;50.810;8.342;2022-08-19T08:49:06;14.63;;;10.83;;
5805;SDS011;2929;50.810;8.342;2022-08-19T08:51:40;14.63;;;10.50;;
5805;SDS011;2929;50.810;8.342;2022-08-19T08:54:13;14.40;;;9.87;;
5805;SDS011;2929;50.810;8.342;2022-08-19T08:56:44;16.50;;;10.47;;
5805;SDS011;2929;50.810;8.342;2022-08-19T08:59:16;16.37;;;11.40;;
5805;SDS011;2929;50.810;8.342;2022-08-19T09:01:49;13.40;;;9.40;;
5805;SDS011;2929;50.810;8.342;2022-08-19T09:04:16;17.80;;;10.87;;
5805;SDS011;2929;50.810;8.342;2022-08-19T09:06:46;12.47;;;10.33;;
5805;SDS011;2929;50.810;8.342;2022-08-19T09:09:18;14.07;;;8.93;;
5805;SDS011;2929;50.810;8.342;2022-08-19T09:11:56;13.03;;;10.07;;
5805;SDS011;2929;50.810;8.342;2022-08-19T09:14:32;11.97;;;9.80;;
5805;SDS011;2929;50.810;8.342;2022-08-19T09:17:06;11.13;;;8.83;;
5805;SDS011;2929;50.810;8.342;2022-08-19T09:19:35;12.47;;;9.53;;
5805;SDS011;2929;50.810;8.342;2022-08-19T09:22:13;11.80;;;9.80;;
5805;SDS011;2929;50.810;8.342;2022-08-19T09:24:40;12.80;;;9.23;;
5805;SDS011;2929;50.810;8.342;2022-08-19T09:27:09;10.80;;;9.00;;
5805;SDS011;2929;50.810;8.342;2022-08-19T09:29:36;13.27;;;8.87;;
5805;SDS011;2929;50.810;8.342;2022-08-19T09:32:03;13.27;;;10.33;;
5805;SDS011;2929;50.810;8.342;2022-08-19T09:34:31;11.50;;;9.33;;
5805;SDS011;2929;50.810;8.342;2022-08-19T09:36:58;13.23;;;10.33;;
5805;SDS011;2929;50.810;8.342;2022-08-19T09:39:26;14.90;;;10.90;;
5805;SDS011;2929;50.810;8.342;2022-08-19T09:41:53;15.47;;;13.87;;
5805;SDS011;2929;50.810;8.342;2022-08-19T09:44:21;14.80;;;12.60;;
5805;SDS011;2929;50.810;8.342;2022-08-19T09:46:49;15.00;;;12.27;;
5805;SDS011;2929;50.810;8.342;2022-08-19T09:49:17;16.83;;;12.17;;
5805;SDS011;2929;50.810;8.342;2022-08-19T09:51:48;16.63;;;13.50;;
5805;SDS011;2929;50.810;8.342;2022-08-19T09:54:16;16.53;;;11.90;;
5805;SDS011;2929;50.810;8.342;2022-08-19T09:56:43;13.23;;;10.70;;
5805;SDS011;2929;50.810;8.342;2022-08-19T09:59:11;16.27;;;11.40;;
5805;SDS011;2929;50.810;8.342;2022-08-19T10:01:39;17.30;;;11.40;;
5805;SDS011;2929;50.810;8.342;2022-08-19T10:04:06;17.53;;;12.63;;
5805;SDS011;2929;50.810;8.342;2022-08-19T10:06:35;17.33;;;11.67;;
5805;SDS011;2929;50.810;8.342;2022-08-19T10:09:03;17.17;;;11.90;;
5805;SDS011;2929;50.810;8.342;2022-08-19T10:11:31;11.97;;;10.80;;
5805;SDS011;2929;50.810;8.342;2022-08-19T10:13:59;16.57;;;10.90;;
5805;SDS011;2929;50.810;8.342;2022-08-19T10:16:26;14.83;;;11.40;;
5805;SDS011;2929;50.810;8.342;2022-08-19T10:18:55;19.83;;;11.30;;
5805;SDS011;2929;50.810;8.342;2022-08-19T10:21:23;14.77;;;11.17;;
5805;SDS011;2929;50.810;8.342;2022-08-19T10:23:52;10.93;;;9.90;;
5805;SDS011;2929;50.810;8.342;2022-08-19T10:26:23;11.67;;;10.20;;
5805;SDS011;2929;50.810;8.342;2022-08-19T10:28:51;12.60;;;8.77;;
5805;SDS011;2929;50.810;8.342;2022-08-19T10:31:20;11.90;;;9.43;;
5805;SDS011;2929;50.810;8.342;2022-08-19T10:33:48;10.33;;;9.23;;
5805;SDS011;2929;50.810;8.342;2022-08-19T10:36:18;11.13;;;10.00;;
5805;SDS011;2929;50.810;8.342;2022-08-19T10:38:49;9.67;;;8.67;;
5805;SDS011;2929;50.810;8.342;2022-08-19T10:41:18;9.90;;;8.90;;
5805;SDS011;2929;50.810;8.342;2022-08-19T10:43:50;9.83;;;8.20;;
5805;SDS011;2929;50.810;8.342;2022-08-19T10:46:17;9.57;;;8.60;;
5805;SDS011;2929;50.810;8.342;2022-08-19T10:48:45;14.50;;;9.87;;
5805;SDS011;2929;50.810;8.342;2022-08-19T10:51:12;13.97;;;9.63;;
5805;SDS011;2929;50.810;8.342;2022-08-19T10:53:58;11.00;;;9.60;;
5805;SDS011;2929;50.810;8.342;2022-08-19T10:56:26;9.10;;;8.30;;
5805;SDS011;2929;50.810;8.342;2022-08-19T10:59:11;9.93;;;9.03;;
5805;SDS011;2929;50.810;8.342;2022-08-19T11:01:39;16.83;;;8.07;;
5805;SDS011;2929;50.810;8.342;2022-08-19T11:04:07;8.50;;;7.33;;
5805;SDS011;2929;50.810;8.342;2022-08-19T11:06:38;8.77;;;7.87;;
5805;SDS011;2929;50.810;8.342;2022-08-19T11:09:07;7.90;;;6.90;;
5805;SDS011;2929;50.810;8.342;2022-08-19T11:11:35;8.93;;;6.80;;
5805;SDS011;2929;50.810;8.342;2022-08-19T11:14:05;8.53;;;7.00;;
5805;SDS011;2929;50.810;8.342;2022-08-19T11:16:33;10.00;;;6.87;;
5805;SDS011;2929;50.810;8.342;2022-08-19T11:19:00;8.00;;;7.20;;
5805;SDS011;2929;50.810;8.342;2022-08-19T11:21:28;7.97;;;7.23;;
5805;SDS011;2929;50.810;8.342;2022-08-19T11:23:57;7.80;;;7.00;;
5805;SDS011;2929;50.810;8.342;2022-08-19T11:26:28;7.53;;;6.70;;
5805;SDS011;2929;50.810;8.342;2022-08-19T11:28:56;7.90;;;7.20;;
5805;SDS011;2929;50.810;8.342;2022-08-19T11:31:24;7.50;;;6.80;;
5805;SDS011;2929;50.810;8.342;2022-08-19T11:33:55;13.23;;;7.20;;
5805;SDS011;2929;50.810;8.342;2022-08-19T11:36:22;6.90;;;6.20;;
5805;SDS011;2929;50.810;8.342;2022-08-19T11:38:49;6.87;;;6.20;;
5805;SDS011;2929;50.810;8.342;2022-08-19T11:41:17;7.50;;;6.80;;
5805;SDS011;2929;50.810;8.342;2022-08-19T11:43:47;11.10;;;6.33;;
5805;SDS011;2929;50.810;8.342;2022-08-19T11:46:15;8.67;;;7.23;;
5805;SDS011;2929;50.810;8.342;2022-08-19T11:48:43;6.90;;;6.30;;
5805;SDS011;2929;50.810;8.342;2022-08-19T11:51:11;6.33;;;5.80;;
5805;SDS011;2929;50.810;8.342;2022-08-19T11:53:40;5.93;;;5.30;;
5805;SDS011;2929;50.810;8.342;2022-08-19T11:56:08;8.50;;;6.23;;
5805;SDS011;2929;50.810;8.342;2022-08-19T11:58:35;6.60;;;5.40;;
5805;SDS011;2929;50.810;8.342;2022-08-19T12:01:06;7.17;;;6.50;;
5805;SDS011;2929;50.810;8.342;2022-08-19T12:03:34;8.80;;;6.33;;
5805;SDS011;2929;50.810;8.342;2022-08-19T12:06:03;7.30;;;6.53;;
5805;SDS011;2929;50.810;8.342;2022-08-19T12:08:31;7.07;;;6.47;;
5805;SDS011;2929;50.810;8.342;2022-08-19T12:10:58;7.17;;;6.47;;
5805;SDS011;2929;50.810;8.342;2022-08-19T12:13:27;6.07;;;5.50;;
5805;SDS011;2929;50.810;8.342;2022-08-19T12:15:55;6.10;;;5.60;;
5805;SDS011;2929;50.810;8.342;2022-08-19T12:18:24;7.63;;;5.47;;
5805;SDS011;2929;50.810;8.342;2022-08-19T12:20:52;6.43;;;5.50;;
5805;SDS011;2929;50.810;8.342;2022-08-19T12:23:21;5.33;;;4.80;;
5805;SDS011;2929;50.810;8.342;2022-08-19T12:25:48;5.10;;;4.70;;
5805;SDS011;2929;50.810;8.342;2022-08-19T12:28:17;5.40;;;4.50;;
5805;SDS011;2929;50.810;8.342;2022-08-19T12:30:44;4.47;;;4.17;;
5805;SDS011;2929;50.810;8.342;2022-08-19T12:33:11;6.80;;;4.23;;
5805;SDS011;2929;50.810;8.342;2022-08-19T12:35:41;11.03;;;4.37;;
5805;SDS011;2929;50.810;8.342;2022-08-19T12:38:09;8.27;;;3.93;;
5805;SDS011;2929;50.810;8.342;2022-08-19T12:40:36;7.17;;;3.80;;
5805;SDS011;2929;50.810;8.342;2022-08-19T12:43:04;3.50;;;3.20;;
5805;SDS011;2929;50.810;8.342;2022-08-19T12:45:31;3.70;;;3.40;;
5805;SDS011;2929;50.810;8.342;2022-08-19T12:47:58;3.73;;;3.43;;
5805;SDS011;2929;50.810;8.342;2022-08-19T12:50:25;3.90;;;3.50;;
5805;SDS011;2929;50.810;8.342;2022-08-19T12:52:53;4.23;;;3.20;;
5805;SDS011;2929;50.810;8.342;2022-08-19T12:55:20;3.50;;;3.17;;
5805;SDS011;2929;50.810;8.342;2022-08-19T12:57:47;7.97;;;3.30;;
5805;SDS011;2929;50.810;8.342;2022-08-19T13:00:16;3.57;;;3.20;;
5805;SDS011;2929;50.810;8.342;2022-08-19T13:02:47;13.27;;;3.90;;
5805;SDS011;2929;50.810;8.342;2022-08-19T13:05:16;4.33;;;3.60;;
5805;SDS011;2929;50.810;8.342;2022-08-19T13:07:46;8.90;;;3.70;;
5805;SDS011;2929;50.810;8.342;2022-08-19T13:10:16;3.63;;;3.43;;
5805;SDS011;2929;50.810;8.342;2022-08-19T13:12:45;3.80;;;3.50;;
5805;SDS011;2929;50.810;8.342;2022-08-19T13:15:14;4.37;;;3.90;;
5805;SDS011;2929;50.810;8.342;2022-08-19T13:17:43;3.97;;;3.60;;
5805;SDS011;2929;50.810;8.342;2022-08-19T13:20:10;3.57;;;3.20;;
5805;SDS011;2929;50.810;8.342;2022-08-19T13:22:37;3.93;;;3.63;;
5805;SDS011;2929;50.810;8.342;2022-08-19T13:25:05;3.70;;;3.40;;
5805;SDS011;2929;50.810;8.342;2022-08-19T13:27:35;4.33;;;3.47;;
5805;SDS011;2929;50.810;8.342;2022-08-19T13:30:03;4.17;;;3.77;;
5805;SDS011;2929;50.810;8.342;2022-08-19T13:32:55;4.40;;;3.47;;
5805;SDS011;2929;50.810;8.342;2022-08-19T13:35:37;5.67;;;3.93;;
5805;SDS011;2929;50.810;8.342;2022-08-19T13:38:05;4.63;;;4.00;;
5805;SDS011;2929;50.810;8.342;2022-08-19T13:40:32;4.10;;;3.80;;
5805;SDS011;2929;50.810;8.342;2022-08-19T13:43:01;5.90;;;3.60;;
5805;SDS011;2929;50.810;8.342;2022-08-19T13:45:30;7.00;;;3.80;;
5805;SDS011;2929;50.810;8.342;2022-08-19T13:47:59;4.60;;;4.20;;
5805;SDS011;2929;50.810;8.342;2022-08-19T13:50:30;4.80;;;4.30;;
5805;SDS011;2929;50.810;8.342;2022-08-19T13:52:57;4.70;;;4.30;;
5805;SDS011;2929;50.810;8.342;2022-08-19T13:55:25;6.73;;;3.80;;
5805;SDS011;2929;50.810;8.342;2022-08-19T13:57:53;6.00;;;4.07;;
5805;SDS011;2929;50.810;8.342;2022-08-19T14:00:24;4.60;;;4.20;;
5805;SDS011;2929;50.810;8.342;2022-08-19T14:02:54;4.60;;;4.30;;
5805;SDS011;2929;50.810;8.342;2022-08-19T14:05:23;15.93;;;4.70;;
5805;SDS011;2929;50.810;8.342;2022-08-19T14:07:51;6.30;;;4.80;;
5805;SDS011;2929;50.810;8.342;2022-08-19T14:10:19;8.10;;;4.63;;
5805;SDS011;2929;50.810;8.342;2022-08-19T14:12:47;4.90;;;4.40;;
5805;SDS011;2929;50.810;8.342;2022-08-19T14:15:14;11.30;;;4.60;;
5805;SDS011;2929;50.810;8.342;2022-08-19T14:17:45;14.70;;;4.90;;
5805;SDS011;2929;50.810;8.342;2022-08-19T14:20:14;5.43;;;4.93;;
5805;SDS011;2929;50.810;8.342;2022-08-19T14:22:42;5.67;;;4.10;;
5805;SDS011;2929;50.810;8.342;2022-08-19T14:25:10;6.20;;;5.13;;
5805;SDS011;2929;50.810;8.342;2022-08-19T14:27:39;7.43;;;4.43;;
5805;SDS011;2929;50.810;8.342;2022-08-19T14:30:07;9.80;;;5.10;;
5805;SDS011;2929;50.810;8.342;2022-08-19T14:32:35;5.73;;;4.77;;
5805;SDS011;2929;50.810;8.342;2022-08-19T14:35:04;4.73;;;4.33;;
5805;SDS011;2929;50.810;8.342;2022-08-19T14:37:32;5.27;;;4.50;;
5805;SDS011;2929;50.810;8.342;2022-08-19T14:39:59;6.70;;;4.80;;
5805;SDS011;2929;50.810;8.342;2022-08-19T14:42:27;6.23;;;5.00;;
5805;SDS011;2929;50.810;8.342;2022-08-19T14:44:56;7.23;;;5.03;;
5805;SDS011;2929;50.810;8.342;2022-08-19T14:47:25;4.40;;;4.10;;
5805;SDS011;2929;50.810;8.342;2022-08-19T14:49:52;4.73;;;4.40;;
5805;SDS011;2929;50.810;8.342;2022-08-19T14:52:20;5.13;;;4.63;;
5805;SDS011;2929;50.810;8.342;2022-08-19T14:54:47;5.73;;;4.77;;
5805;SDS011;2929;50.810;8.342;2022-08-19T14:57:14;5.00;;;4.60;;
5805;SDS011;2929;50.810;8.342;2022-08-19T14:59:42;5.20;;;4.70;;
5805;SDS011;2929;50.810;8.342;2022-08-19T15:02:09;5.00;;;4.53;;
5805;SDS011;2929;50.810;8.342;2022-08-19T15:04:37;5.00;;;4.50;;
5805;SDS011;2929;50.810;8.342;2022-08-19T15:07:04;4.97;;;4.57;;